createdAt,value
2022-11-08T00:02:09.126Z,99.90
2022-11-08T00:04:35.894Z,99.90
2022-11-08T00:07:21.595Z,99.90
2022-11-08T00:10:07.691Z,99.90
2022-11-08T00:12:52.624Z,99.90
2022-11-08T00:15:19.517Z,99.90
2022-11-08T00:17:46.088Z,99.90
2022-11-08T00:20:12.688Z,99.90
2022-11-08T00:22:40.038Z,99.90
2022-11-08T00:25:07.300Z,99.90
2022-11-08T00:27:33.884Z,99.90
2022-11-08T00:30:00.477Z,99.90
2022-11-08T00:32:27.084Z,99.90
2022-11-08T00:34:53.734Z,99.90
2022-11-08T00:37:21.518Z,99.90
2022-11-08T00:39:49.232Z,99.90
2022-11-08T00:42:16.040Z,99.90
2022-11-08T00:44:42.634Z,99.90
2022-11-08T00:47:09.627Z,99.90
2022-11-08T00:49:36.249Z,99.90
2022-11-08T00:52:02.861Z,99.90
2022-11-08T00:54:29.803Z,99.90
2022-11-08T00:56:57.024Z,99.90
2022-11-08T00:59:23.623Z,99.90
2022-11-08T01:01:50.339Z,99.90
2022-11-08T01:04:18.676Z,99.90
2022-11-08T01:06:45.802Z,99.90
2022-11-08T01:09:13.013Z,99.90
2022-11-08T01:11:44.469Z,99.90
2022-11-08T01:14:12.632Z,99.90
2022-11-08T01:16:39.867Z,99.90
2022-11-08T01:19:06.540Z,99.90
2022-11-08T01:21:33.115Z,99.90
2022-11-08T01:23:59.700Z,99.90
2022-11-08T01:26:27.987Z,99.90
2022-11-08T01:28:54.953Z,99.90
2022-11-08T01:31:24.462Z,99.90
2022-11-08T01:33:52.104Z,99.90
2022-11-08T01:36:21.057Z,99.90
2022-11-08T01:38:48.116Z,99.90
2022-11-08T01:41:16.712Z,99.90
2022-11-08T01:43:44.945Z,99.90
2022-11-08T01:46:31.513Z,99.90
2022-11-08T01:49:15.060Z,99.90
2022-11-08T01:51:45.480Z,99.90
2022-11-08T01:54:17.333Z,99.90
2022-11-08T01:56:44.543Z,99.90
2022-11-08T01:59:13.748Z,99.90
2022-11-08T02:01:41.579Z,99.90
2022-11-08T02:04:08.620Z,99.90
2022-11-08T02:06:37.906Z,99.90
2022-11-08T02:09:08.485Z,99.90
2022-11-08T02:11:36.250Z,99.90
2022-11-08T02:14:03.922Z,99.90
2022-11-08T02:16:30.566Z,99.90
2022-11-08T02:18:58.024Z,99.90
2022-11-08T02:21:28.351Z,99.90
2022-11-08T02:23:58.191Z,99.90
2022-11-08T02:26:28.325Z,99.90
2022-11-08T02:28:55.137Z,99.90
2022-11-08T02:31:21.788Z,99.90
2022-11-08T02:33:49.274Z,99.90
2022-11-08T02:36:19.347Z,99.90
2022-11-08T02:38:49.131Z,99.90
2022-11-08T02:41:16.391Z,99.90
2022-11-08T02:43:42.960Z,99.90
2022-11-08T02:46:09.618Z,99.90
2022-11-08T02:48:36.210Z,99.90
2022-11-08T02:51:03.028Z,99.90
2022-11-08T02:53:29.674Z,99.90
2022-11-08T02:55:56.254Z,99.90
2022-11-08T02:58:24.039Z,99.90
2022-11-08T03:00:50.660Z,99.90
2022-11-08T03:03:17.347Z,99.90
2022-11-08T03:05:46.746Z,99.90
2022-11-08T03:08:13.625Z,99.90
2022-11-08T03:10:40.269Z,99.90
2022-11-08T03:13:06.911Z,99.90
2022-11-08T03:15:34.188Z,99.90
2022-11-08T03:18:01.873Z,99.90
2022-11-08T03:20:32.863Z,99.90
2022-11-08T03:23:01.238Z,99.90
2022-11-08T03:25:28.624Z,99.90
2022-11-08T03:27:55.543Z,99.90
2022-11-08T03:30:22.255Z,99.90
2022-11-08T03:32:49.689Z,99.90
2022-11-08T03:35:16.508Z,99.90
2022-11-08T03:37:50.134Z,99.90
2022-11-08T03:40:16.819Z,99.90
2022-11-08T03:42:43.404Z,99.90
2022-11-08T03:45:10.866Z,99.90
2022-11-08T03:47:38.142Z,99.90
2022-11-08T03:50:06.376Z,99.90
2022-11-08T03:52:40.370Z,99.90
2022-11-08T03:55:08.274Z,99.90
2022-11-08T03:57:35.007Z,99.90
2022-11-08T04:00:01.672Z,99.90
2022-11-08T04:02:28.286Z,99.90
2022-11-08T04:04:54.840Z,99.90
2022-11-08T04:07:22.103Z,99.90
2022-11-08T04:09:48.676Z,99.90
2022-11-08T04:12:33.389Z,99.90
2022-11-08T04:15:14.905Z,99.90
2022-11-08T04:18:00.308Z,99.90
2022-11-08T04:20:45.853Z,99.90
2022-11-08T04:23:13.639Z,99.90
2022-11-08T04:25:40.633Z,99.90
2022-11-08T04:28:07.156Z,99.90
2022-11-08T04:30:33.797Z,99.90
2022-11-08T04:33:00.607Z,99.90
2022-11-08T04:35:27.281Z,99.90
2022-11-08T04:37:58.091Z,99.90
2022-11-08T04:40:25.473Z,99.90
2022-11-08T04:42:52.068Z,99.90
2022-11-08T04:45:18.628Z,99.90
2022-11-08T04:47:48.328Z,99.90
2022-11-08T04:50:15.816Z,99.90
2022-11-08T04:52:42.610Z,99.90
2022-11-08T04:55:09.740Z,99.90
2022-11-08T04:57:36.953Z,99.90
2022-11-08T05:00:04.549Z,99.90
2022-11-08T05:02:31.188Z,99.90
2022-11-08T05:04:57.860Z,99.90
2022-11-08T05:07:24.412Z,99.90
2022-11-08T05:09:51.084Z,99.90
2022-11-08T05:12:17.621Z,99.90
2022-11-08T05:14:44.822Z,99.90
2022-11-08T05:17:11.414Z,99.90
2022-11-08T05:19:56.293Z,99.90
2022-11-08T05:22:41.438Z,99.90
2022-11-08T05:25:08.672Z,99.90
2022-11-08T05:27:35.332Z,99.90
2022-11-08T05:30:04.107Z,99.90
2022-11-08T05:32:30.735Z,99.90
2022-11-08T05:34:57.357Z,99.90
2022-11-08T05:37:23.943Z,99.90
2022-11-08T05:39:50.771Z,99.90
2022-11-08T05:42:17.393Z,99.90
2022-11-08T05:44:43.947Z,99.90
2022-11-08T05:47:11.426Z,99.90
2022-11-08T05:49:37.991Z,99.90
2022-11-08T05:52:05.065Z,99.90
2022-11-08T05:54:31.778Z,99.90
2022-11-08T05:56:58.416Z,99.90
2022-11-08T05:59:25.039Z,99.90
2022-11-08T06:01:51.697Z,99.90
2022-11-08T06:04:18.972Z,99.90
2022-11-08T06:06:45.587Z,99.90
2022-11-08T06:09:12.171Z,99.90
2022-11-08T06:11:38.984Z,99.90
2022-11-08T06:14:05.962Z,99.90
2022-11-08T06:16:32.689Z,99.90
2022-11-08T06:18:59.282Z,99.90
2022-11-08T06:21:26.874Z,99.90
2022-11-08T06:23:54.351Z,99.90
2022-11-08T06:26:21.320Z,99.90
2022-11-08T06:28:47.879Z,99.90
2022-11-08T06:31:14.512Z,99.90
2022-11-08T06:33:41.372Z,99.90
2022-11-08T06:36:08.066Z,99.90
2022-11-08T06:38:35.411Z,99.90
2022-11-08T06:41:02.433Z,99.90
2022-11-08T06:43:29.055Z,99.90
2022-11-08T06:45:59.239Z,99.90
2022-11-08T06:48:28.798Z,99.90
2022-11-08T06:50:57.631Z,99.90
2022-11-08T06:53:24.247Z,99.90
2022-11-08T06:55:51.561Z,99.90
2022-11-08T06:58:18.214Z,99.90
2022-11-08T07:00:44.768Z,99.90
2022-11-08T07:03:12.509Z,99.90
2022-11-08T07:05:39.118Z,99.90
2022-11-08T07:08:06.738Z,99.90
2022-11-08T07:10:34.301Z,99.90
2022-11-08T07:13:04.157Z,99.90
2022-11-08T07:15:31.861Z,99.90
2022-11-08T07:18:00.761Z,99.90
2022-11-08T07:20:27.473Z,99.90
2022-11-08T07:22:54.808Z,99.90
2022-11-08T07:25:21.543Z,99.90
2022-11-08T07:27:48.182Z,99.90
2022-11-08T07:30:15.762Z,99.90
2022-11-08T07:32:42.426Z,99.90
2022-11-08T07:35:09.444Z,99.90
2022-11-08T07:37:36.216Z,99.90
2022-11-08T07:40:03.375Z,99.90
2022-11-08T07:42:43.817Z,99.90
2022-11-08T07:45:17.553Z,99.90
2022-11-08T07:47:44.309Z,99.90
2022-11-08T07:50:10.927Z,99.90
2022-11-08T07:52:37.569Z,99.90
2022-11-08T07:55:04.889Z,99.90
2022-11-08T07:57:31.479Z,99.90
2022-11-08T07:59:58.112Z,99.90
2022-11-08T08:02:26.026Z,99.90
2022-11-08T08:04:52.686Z,99.90
2022-11-08T08:07:19.263Z,99.90
2022-11-08T08:09:46.022Z,99.90
2022-11-08T08:12:12.766Z,99.90
2022-11-08T08:14:39.322Z,99.90
2022-11-08T08:17:05.894Z,99.90
2022-11-08T08:19:33.095Z,99.90
2022-11-08T08:21:59.663Z,99.90
2022-11-08T08:24:26.315Z,99.90
2022-11-08T08:26:52.944Z,99.90
2022-11-08T08:29:19.560Z,99.90
2022-11-08T08:31:46.153Z,99.90
2022-11-08T08:34:14.903Z,99.90
2022-11-08T08:36:42.168Z,99.90
2022-11-08T08:39:08.818Z,99.90
2022-11-08T08:41:35.406Z,99.90
2022-11-08T08:44:02.041Z,99.90
2022-11-08T08:46:28.761Z,99.90
2022-11-08T08:48:55.507Z,99.90
2022-11-08T08:51:22.085Z,99.90
2022-11-08T08:53:49.312Z,99.90
2022-11-08T08:56:15.866Z,99.90
2022-11-08T08:58:42.381Z,99.90
2022-11-08T09:03:55.596Z,99.90
2022-11-08T09:06:22.175Z,99.90
2022-11-08T09:08:49.438Z,99.90
2022-11-08T09:11:16.038Z,99.90
2022-11-08T09:13:42.586Z,99.90
2022-11-08T09:16:09.502Z,99.90
2022-11-08T09:18:36.161Z,99.90
2022-11-08T09:21:03.578Z,99.90
2022-11-08T09:23:30.192Z,99.90
2022-11-08T09:25:59.099Z,99.90
2022-11-08T09:28:31.013Z,99.90
2022-11-08T09:31:01.044Z,99.90
2022-11-08T09:36:00.096Z,99.90
2022-11-08T09:38:26.748Z,99.90
2022-11-08T09:41:04.755Z,99.90
2022-11-08T09:43:47.176Z,99.90
2022-11-08T09:46:23.601Z,99.90
2022-11-08T09:48:52.491Z,99.90
2022-11-08T09:51:22.758Z,99.90
2022-11-08T09:53:52.723Z,99.90
2022-11-08T09:56:26.557Z,99.90
2022-11-08T09:58:54.957Z,99.90
2022-11-08T10:01:26.845Z,99.90
2022-11-08T10:03:56.638Z,99.90
2022-11-08T10:06:48.680Z,99.90
2022-11-08T10:09:34.229Z,99.90
2022-11-08T10:12:17.321Z,99.90
2022-11-08T10:14:56.838Z,99.90
2022-11-08T10:17:35.232Z,99.90
2022-11-08T10:20:13.208Z,99.90
2022-11-08T10:22:51.291Z,99.90
2022-11-08T10:25:30.178Z,99.90
2022-11-08T10:28:00.240Z,99.90
2022-11-08T10:30:33.312Z,99.90
2022-11-08T10:33:00.749Z,99.90
2022-11-08T10:35:34.464Z,99.90
2022-11-08T10:38:08.155Z,99.90
2022-11-08T10:40:42.544Z,99.90
2022-11-08T10:43:13.209Z,99.90
2022-11-08T10:45:40.289Z,99.90
2022-11-08T10:48:09.771Z,99.90
2022-11-08T10:50:43.117Z,99.90
2022-11-08T10:53:17.787Z,99.90
2022-11-08T10:55:50.264Z,99.90
2022-11-08T10:58:32.799Z,99.90
2022-11-08T11:01:01.508Z,99.90
2022-11-08T11:03:29.708Z,99.90
2022-11-08T11:05:59.235Z,99.90
2022-11-08T11:08:26.240Z,99.90
2022-11-08T11:10:53.293Z,99.90
2022-11-08T11:13:21.939Z,99.90
2022-11-08T11:15:51.007Z,99.90
2022-11-08T11:18:30.338Z,99.90
2022-11-08T11:21:06.699Z,99.90
2022-11-08T11:23:36.054Z,99.90
2022-11-08T11:26:03.952Z,99.90
2022-11-08T11:28:30.716Z,99.90
2022-11-08T11:31:02.748Z,99.90
2022-11-08T11:33:30.713Z,99.90
2022-11-08T11:36:01.726Z,99.90
2022-11-08T11:38:35.550Z,99.90
2022-11-08T11:41:10.789Z,99.90
2022-11-08T11:43:42.348Z,99.90
2022-11-08T11:46:17.130Z,99.90
2022-11-08T11:48:46.864Z,99.90
2022-11-08T11:51:13.889Z,99.90
2022-11-08T11:53:45.971Z,99.90
2022-11-08T11:56:40.656Z,99.90
2022-11-08T11:59:40.899Z,99.90
2022-11-08T12:02:41.582Z,99.90
2022-11-08T12:05:25.540Z,99.90
2022-11-08T12:08:02.309Z,99.90
2022-11-08T12:10:36.942Z,99.90
2022-11-08T12:13:13.748Z,99.90
2022-11-08T12:15:46.232Z,99.90
2022-11-08T12:18:42.166Z,99.90
2022-11-08T12:21:14.078Z,99.90
2022-11-08T12:24:09.144Z,99.90
2022-11-08T12:26:42.258Z,99.90
2022-11-08T12:29:22.901Z,99.90
2022-11-08T12:31:59.619Z,99.90
2022-11-08T12:34:38.636Z,99.90
2022-11-08T12:37:15.920Z,99.90
2022-11-08T12:39:44.819Z,99.90
2022-11-08T12:42:24.530Z,99.90
2022-11-08T12:45:34.481Z,99.10
2022-11-08T12:48:10.406Z,94.80
2022-11-08T12:50:48.009Z,92.20
2022-11-08T12:53:48.357Z,87.40
2022-11-08T12:56:19.967Z,81.50
2022-11-08T12:58:49.105Z,74.90
2022-11-08T13:01:18.169Z,74.30
2022-11-08T13:04:06.217Z,72.40
2022-11-08T13:06:43.018Z,70.40
2022-11-08T13:09:18.785Z,71.70
2022-11-08T13:12:00.816Z,76.50
2022-11-08T13:14:27.705Z,78.80
2022-11-08T13:17:13.593Z,79.80
2022-11-08T13:19:54.770Z,81.60
2022-11-08T13:22:44.558Z,83.50
2022-11-08T13:25:36.514Z,84.50
2022-11-08T13:28:34.038Z,89.90
2022-11-08T13:31:08.721Z,92.00
2022-11-08T13:33:36.085Z,94.00
2022-11-08T13:36:13.738Z,95.20
2022-11-08T13:38:50.499Z,95.90
2022-11-08T13:41:18.483Z,97.40
2022-11-08T13:43:46.352Z,99.10
2022-11-08T13:46:44.628Z,99.90
2022-11-08T13:49:17.373Z,99.90
2022-11-08T13:51:45.383Z,99.90
2022-11-08T13:54:47.075Z,99.90
2022-11-08T13:57:19.084Z,99.90
2022-11-08T13:59:55.060Z,99.90
2022-11-08T14:02:38.331Z,99.90
2022-11-08T14:05:43.113Z,99.90
2022-11-08T14:08:35.251Z,99.90
2022-11-08T14:11:28.318Z,99.90
2022-11-08T14:14:24.620Z,99.90
2022-11-08T14:17:28.660Z,99.90
2022-11-08T14:20:13.654Z,99.90
2022-11-08T14:22:47.477Z,99.90
2022-11-08T14:25:22.131Z,99.90
2022-11-08T14:27:50.053Z,99.90
2022-11-08T14:30:18.795Z,99.90
2022-11-08T14:32:45.697Z,99.90
2022-11-08T14:35:19.232Z,99.90
2022-11-08T14:37:45.857Z,99.90
2022-11-08T14:40:18.130Z,99.90
2022-11-08T14:42:45.030Z,99.90
2022-11-08T14:45:14.622Z,99.90
2022-11-08T14:47:43.165Z,99.90
2022-11-08T14:50:18.695Z,99.90
2022-11-08T14:52:48.160Z,99.90
2022-11-08T14:55:22.423Z,99.90
2022-11-08T14:57:51.519Z,99.90
2022-11-08T15:00:21.430Z,99.90
2022-11-08T15:02:51.742Z,99.90
2022-11-08T15:05:32.724Z,99.90
2022-11-08T15:08:01.719Z,99.90
2022-11-08T15:10:29.021Z,99.90
2022-11-08T15:12:57.125Z,99.90
2022-11-08T15:15:28.592Z,99.90
2022-11-08T15:18:16.662Z,99.90
2022-11-08T15:20:54.989Z,99.90
2022-11-08T15:23:41.825Z,99.90
2022-11-08T15:26:21.288Z,99.90
2022-11-08T15:28:59.258Z,99.90
2022-11-08T15:31:29.003Z,99.90
2022-11-08T15:33:56.265Z,99.90
2022-11-08T15:36:30.204Z,99.90
2022-11-08T15:38:56.850Z,99.90
2022-11-08T15:41:36.448Z,99.90
2022-11-08T15:44:13.971Z,99.90
2022-11-08T15:46:42.080Z,99.90
2022-11-08T15:49:20.474Z,99.90
2022-11-08T15:51:47.960Z,99.90
2022-11-08T15:54:14.853Z,99.90
2022-11-08T15:56:42.135Z,99.90
2022-11-08T15:59:19.993Z,99.90
2022-11-08T16:01:54.549Z,99.90
2022-11-08T16:04:21.261Z,99.90
2022-11-08T16:06:48.030Z,99.90
2022-11-08T16:09:14.768Z,99.90
2022-11-08T16:11:44.073Z,99.90
2022-11-08T16:14:15.888Z,99.90
2022-11-08T16:16:42.548Z,99.90
2022-11-08T16:19:17.632Z,99.90
2022-11-08T16:21:44.361Z,99.90
2022-11-08T16:24:11.043Z,99.90
2022-11-08T16:26:40.126Z,99.90
2022-11-08T16:29:13.012Z,99.90
2022-11-08T16:31:39.591Z,99.90
2022-11-08T16:34:08.774Z,99.90
2022-11-08T16:36:36.124Z,99.90
2022-11-08T16:39:03.755Z,99.90
2022-11-08T16:41:30.382Z,99.90
2022-11-08T16:43:59.485Z,99.90
2022-11-08T16:46:26.118Z,99.90
2022-11-08T16:48:56.220Z,99.90
2022-11-08T16:51:24.583Z,99.90
2022-11-08T16:53:55.029Z,99.90
2022-11-08T16:56:21.902Z,99.90
2022-11-08T16:58:48.859Z,99.90
2022-11-08T17:01:20.067Z,99.90
2022-11-08T17:03:46.851Z,99.90
2022-11-08T17:06:17.237Z,99.90
2022-11-08T17:08:45.204Z,99.90
2022-11-08T17:11:16.491Z,99.90
2022-11-08T17:13:43.249Z,99.90
2022-11-08T17:16:11.879Z,99.90
2022-11-08T17:18:38.959Z,99.90
2022-11-08T17:21:23.292Z,99.90
2022-11-08T17:23:52.949Z,99.90
2022-11-08T17:26:20.248Z,99.90
2022-11-08T17:28:47.171Z,99.90
2022-11-08T17:31:15.885Z,99.90
2022-11-08T17:33:42.883Z,99.90
2022-11-08T17:36:11.993Z,99.90
2022-11-08T17:38:39.872Z,99.90
2022-11-08T17:41:09.221Z,99.90
2022-11-08T17:43:36.769Z,99.90
2022-11-08T17:46:04.327Z,99.90
2022-11-08T17:48:31.500Z,99.90
2022-11-08T17:50:58.333Z,99.90
2022-11-08T17:53:25.483Z,99.90
2022-11-08T17:55:56.802Z,99.90
2022-11-08T17:58:25.151Z,99.90
2022-11-08T18:00:54.619Z,99.90
2022-11-08T18:03:22.285Z,99.90
2022-11-08T18:05:53.330Z,99.90
2022-11-08T18:08:24.135Z,99.90
2022-11-08T18:10:55.591Z,99.90
2022-11-08T18:13:23.046Z,99.90
2022-11-08T18:15:50.000Z,99.90
2022-11-08T18:18:17.666Z,99.90
2022-11-08T18:20:44.626Z,99.90
2022-11-08T18:23:11.553Z,99.90
2022-11-08T18:25:38.831Z,99.90
2022-11-08T18:28:07.282Z,99.90
2022-11-08T18:30:33.910Z,99.90
2022-11-08T18:33:00.572Z,99.90
2022-11-08T18:35:27.777Z,99.90
2022-11-08T18:37:54.799Z,99.90
2022-11-08T18:40:21.469Z,99.90
2022-11-08T18:42:49.071Z,99.90
2022-11-08T18:45:15.769Z,99.90
2022-11-08T18:47:42.554Z,99.90
2022-11-08T18:50:09.735Z,99.90
2022-11-08T18:52:37.440Z,99.90
2022-11-08T18:55:04.309Z,99.90
2022-11-08T18:57:31.065Z,99.90
2022-11-08T19:00:00.997Z,99.90
2022-11-08T19:02:28.236Z,99.90
2022-11-08T19:04:55.609Z,99.90
2022-11-08T19:07:23.497Z,99.90
2022-11-08T19:09:50.824Z,99.90
2022-11-08T19:12:17.485Z,99.90
2022-11-08T19:14:44.298Z,99.90
2022-11-08T19:17:10.913Z,99.90
2022-11-08T19:19:37.500Z,99.90
2022-11-08T19:22:04.337Z,99.90
2022-11-08T19:24:30.943Z,99.90
2022-11-08T19:26:58.182Z,99.90
2022-11-08T19:29:24.821Z,99.90
2022-11-08T19:31:51.469Z,99.90
2022-11-08T19:34:18.150Z,99.90
2022-11-08T19:36:44.721Z,99.90
2022-11-08T19:39:12.288Z,99.90
2022-11-08T19:41:39.451Z,99.90
2022-11-08T19:44:06.753Z,99.90
2022-11-08T19:46:33.850Z,99.90
2022-11-08T19:49:02.150Z,99.90
2022-11-08T19:51:30.118Z,99.90
2022-11-08T19:53:58.806Z,99.90
2022-11-08T19:56:43.296Z,99.90
2022-11-08T19:59:13.547Z,99.90
2022-11-08T20:01:40.401Z,99.90
2022-11-08T20:04:09.700Z,99.90
2022-11-08T20:06:37.012Z,99.90
2022-11-08T20:09:06.057Z,99.90
2022-11-08T20:11:35.119Z,99.90
2022-11-08T20:14:03.129Z,99.90
2022-11-08T20:16:32.049Z,99.90
2022-11-08T20:19:02.640Z,99.90
2022-11-08T20:21:29.608Z,99.90
2022-11-08T20:23:56.489Z,99.90
2022-11-08T20:26:25.227Z,99.90
2022-11-08T20:28:57.027Z,99.90
2022-11-08T20:31:24.413Z,99.90
2022-11-08T20:33:53.367Z,99.90
2022-11-08T20:36:22.193Z,99.90
2022-11-08T20:38:49.542Z,99.90
2022-11-08T20:41:17.275Z,99.90
2022-11-08T20:43:45.990Z,99.90
2022-11-08T20:46:15.640Z,99.90
2022-11-08T20:48:43.590Z,99.90
2022-11-08T20:51:12.745Z,99.90
2022-11-08T20:53:39.836Z,99.90
2022-11-08T20:56:08.590Z,99.90
2022-11-08T20:58:36.383Z,99.90
2022-11-08T21:01:06.049Z,99.90
2022-11-08T21:03:34.825Z,99.90
2022-11-08T21:06:03.289Z,99.90
2022-11-08T21:11:18.774Z,99.90
2022-11-08T21:13:46.333Z,99.90
2022-11-08T21:16:29.445Z,99.90
2022-11-08T21:18:57.865Z,99.90
2022-11-08T21:21:25.330Z,99.90
2022-11-08T21:23:53.553Z,99.90
2022-11-08T21:26:20.934Z,99.90
2022-11-08T21:28:47.745Z,99.90
2022-11-08T21:31:14.431Z,99.90
2022-11-08T21:33:41.396Z,99.90
2022-11-08T21:36:09.072Z,99.90
2022-11-08T21:38:36.335Z,99.90
2022-11-08T21:41:05.414Z,99.90
2022-11-08T21:43:35.261Z,99.90
2022-11-08T21:46:20.605Z,99.90
2022-11-08T21:48:48.040Z,99.90
2022-11-08T21:51:15.484Z,99.90
2022-11-08T21:53:52.451Z,99.90
2022-11-08T21:56:22.905Z,99.90
2022-11-08T21:58:49.665Z,99.90
2022-11-08T22:01:17.025Z,99.90
2022-11-08T22:03:44.044Z,99.90
2022-11-08T22:06:10.764Z,99.90
2022-11-08T22:08:37.959Z,99.90
2022-11-08T22:11:04.860Z,99.90
2022-11-08T22:13:32.181Z,99.90
2022-11-08T22:15:58.905Z,99.90
2022-11-08T22:18:43.566Z,99.90
2022-11-08T22:21:30.617Z,99.90
2022-11-08T22:23:57.372Z,99.90
2022-11-08T22:26:24.193Z,99.90
2022-11-08T22:28:51.504Z,99.90
2022-11-08T22:31:18.334Z,99.90
2022-11-08T22:33:45.040Z,99.90
2022-11-08T22:36:11.807Z,99.90
2022-11-08T22:38:38.398Z,99.90
2022-11-08T22:41:05.272Z,99.90
2022-11-08T22:43:32.928Z,99.90
2022-11-08T22:46:00.316Z,99.90
2022-11-08T22:48:26.902Z,99.90
2022-11-08T22:50:53.534Z,99.90
2022-11-08T22:53:20.582Z,99.90
2022-11-08T22:55:47.462Z,99.90
2022-11-08T22:58:14.042Z,99.90
2022-11-08T23:00:41.860Z,99.90
2022-11-08T23:03:09.270Z,99.90
2022-11-08T23:05:36.600Z,99.90
2022-11-08T23:08:03.823Z,99.90
2022-11-08T23:10:30.432Z,99.90
2022-11-08T23:13:15.144Z,99.90
2022-11-08T23:15:59.950Z,99.90
2022-11-08T23:18:27.382Z,99.90
2022-11-08T23:21:12.938Z,99.90
2022-11-08T23:24:12.357Z,99.90
2022-11-08T23:26:57.293Z,99.90
2022-11-08T23:29:41.985Z,99.90
2022-11-08T23:32:08.621Z,99.90
2022-11-08T23:34:35.894Z,99.90
2022-11-08T23:37:02.465Z,99.90
2022-11-08T23:39:29.263Z,99.90
2022-11-08T23:42:14.208Z,99.90
2022-11-08T23:44:40.755Z,99.90
2022-11-08T23:47:07.376Z,99.90
2022-11-08T23:49:33.959Z,99.90
2022-11-08T23:52:01.336Z,99.90
2022-11-08T23:54:27.930Z,99.90
2022-11-08T23:56:54.469Z,99.90
2022-11-08T23:59:21.071Z,99.90
